sensor_id;sensor_type;location;lat;lon;timestamp;temperature;humidity
10314;DHT22;5202;49.138;10.090;2024-01-16T00:00:35;-2.10;99.90
10314;DHT22;5202;49.138;10.090;2024-01-16T00:03:04;-2.10;99.90
10314;DHT22;5202;49.138;10.090;2024-01-16T00:05:33;-2.10;99.90
10314;DHT22;5202;49.138;10.090;2024-01-16T00:08:02;-2.10;99.90
10314;DHT22;5202;49.138;10.090;2024-01-16T00:10:31;-2.10;99.90
10314;DHT22;5202;49.138;10.090;2024-01-16T00:12:59;-2.20;99.90
10314;DHT22;5202;49.138;10.090;2024-01-16T00:15:29;-2.20;99.90
10314;DHT22;5202;49.138;10.090;2024-01-16T00:17:58;-2.20;99.90
10314;DHT22;5202;49.138;10.090;2024-01-16T00:20:26;-2.20;99.90
10314;DHT22;5202;49.138;10.090;2024-01-16T00:22:55;-2.20;99.90
10314;DHT22;5202;49.138;10.090;2024-01-16T00:25:23;-2.20;99.90
10314;DHT22;5202;49.138;10.090;2024-01-16T00:27:52;-2.20;99.90
10314;DHT22;5202;49.138;10.090;2024-01-16T00:30:20;-2.20;99.90
10314;DHT22;5202;49.138;10.090;2024-01-16T00:32:50;-2.20;99.90
10314;DHT22;5202;49.138;10.090;2024-01-16T00:35:19;-2.20;99.90
10314;DHT22;5202;49.138;10.090;2024-01-16T00:37:47;-2.20;99.90
10314;DHT22;5202;49.138;10.090;2024-01-16T00:40:16;-2.20;99.90
10314;DHT22;5202;49.138;10.090;2024-01-16T00:42:44;-2.20;99.90
10314;DHT22;5202;49.138;10.090;2024-01-16T00:45:13;-2.20;99.90
10314;DHT22;5202;49.138;10.090;2024-01-16T00:47:41;-2.20;99.90
10314;DHT22;5202;49.138;10.090;2024-01-16T00:50:11;-2.10;99.90
10314;DHT22;5202;49.138;10.090;2024-01-16T00:52:40;-2.10;99.90
10314;DHT22;5202;49.138;10.090;2024-01-16T00:55:08;-2.10;99.90
10314;DHT22;5202;49.138;10.090;2024-01-16T00:57:37;-2.10;99.90
10314;DHT22;5202;49.138;10.090;2024-01-16T01:00:06;-2.10;99.90
10314;DHT22;5202;49.138;10.090;2024-01-16T01:02:37;-2.10;99.90
10314;DHT22;5202;49.138;10.090;2024-01-16T01:05:07;-2.10;99.90
10314;DHT22;5202;49.138;10.090;2024-01-16T01:07:45;-2.10;99.90
10314;DHT22;5202;49.138;10.090;2024-01-16T01:10:13;-2.10;99.90
10314;DHT22;5202;49.138;10.090;2024-01-16T01:12:42;-2.10;99.90
10314;DHT22;5202;49.138;10.090;2024-01-16T01:15:11;-2.10;99.90
10314;DHT22;5202;49.138;10.090;2024-01-16T01:17:41;-2.10;99.90
10314;DHT22;5202;49.138;10.090;2024-01-16T01:20:10;-2.10;99.90
10314;DHT22;5202;49.138;10.090;2024-01-16T01:22:40;-2.20;99.90
10314;DHT22;5202;49.138;10.090;2024-01-16T01:25:11;-2.20;99.90
10314;DHT22;5202;49.138;10.090;2024-01-16T01:27:39;-2.10;99.90
10314;DHT22;5202;49.138;10.090;2024-01-16T01:30:09;-2.10;99.90
10314;DHT22;5202;49.138;10.090;2024-01-16T01:32:38;-2.10;99.90
10314;DHT22;5202;49.138;10.090;2024-01-16T01:35:07;-2.10;99.90
10314;DHT22;5202;49.138;10.090;2024-01-16T01:37:36;-2.10;99.90
10314;DHT22;5202;49.138;10.090;2024-01-16T01:40:06;-2.10;99.90
10314;DHT22;5202;49.138;10.090;2024-01-16T01:42:42;-2.10;99.90
10314;DHT22;5202;49.138;10.090;2024-01-16T01:45:11;-2.10;99.90
10314;DHT22;5202;49.138;10.090;2024-01-16T01:47:40;-2.10;99.90
10314;DHT22;5202;49.138;10.090;2024-01-16T01:50:11;-2.00;99.90
10314;DHT22;5202;49.138;10.090;2024-01-16T01:52:41;-2.00;99.90
10314;DHT22;5202;49.138;10.090;2024-01-16T01:55:11;-2.10;99.90
10314;DHT22;5202;49.138;10.090;2024-01-16T01:57:43;-2.10;99.90
10314;DHT22;5202;49.138;10.090;2024-01-16T02:00:13;-2.10;99.90
10314;DHT22;5202;49.138;10.090;2024-01-16T02:02:45;-2.10;99.90
10314;DHT22;5202;49.138;10.090;2024-01-16T02:05:14;-2.10;99.90
10314;DHT22;5202;49.138;10.090;2024-01-16T02:07:46;-2.10;99.90
10314;DHT22;5202;49.138;10.090;2024-01-16T02:10:14;-2.10;99.90
10314;DHT22;5202;49.138;10.090;2024-01-16T02:12:44;-2.10;99.90
10314;DHT22;5202;49.138;10.090;2024-01-16T02:15:13;-2.00;99.90
10314;DHT22;5202;49.138;10.090;2024-01-16T02:17:41;-2.10;99.90
10314;DHT22;5202;49.138;10.090;2024-01-16T02:20:11;-2.10;99.90
10314;DHT22;5202;49.138;10.090;2024-01-16T02:22:39;-2.10;99.90
10314;DHT22;5202;49.138;10.090;2024-01-16T02:25:12;-2.10;99.90
10314;DHT22;5202;49.138;10.090;2024-01-16T02:27:41;-2.10;99.90
10314;DHT22;5202;49.138;10.090;2024-01-16T02:30:10;-2.10;99.90
10314;DHT22;5202;49.138;10.090;2024-01-16T02:32:38;-2.10;99.90
10314;DHT22;5202;49.138;10.090;2024-01-16T02:35:07;-2.10;99.90
10314;DHT22;5202;49.138;10.090;2024-01-16T02:37:37;-2.10;99.90
10314;DHT22;5202;49.138;10.090;2024-01-16T02:40:06;-2.10;99.90
10314;DHT22;5202;49.138;10.090;2024-01-16T02:42:38;-2.10;99.90
10314;DHT22;5202;49.138;10.090;2024-01-16T02:45:07;-2.10;99.90
10314;DHT22;5202;49.138;10.090;2024-01-16T02:47:35;-2.10;99.90
10314;DHT22;5202;49.138;10.090;2024-01-16T02:50:05;-2.10;99.90
10314;DHT22;5202;49.138;10.090;2024-01-16T02:52:36;-2.00;99.90
10314;DHT22;5202;49.138;10.090;2024-01-16T02:55:06;-2.10;99.90
10314;DHT22;5202;49.138;10.090;2024-01-16T02:57:37;-2.10;99.90
10314;DHT22;5202;49.138;10.090;2024-01-16T03:00:06;-2.10;99.90
10314;DHT22;5202;49.138;10.090;2024-01-16T03:02:35;-2.10;99.90
10314;DHT22;5202;49.138;10.090;2024-01-16T03:05:05;-2.10;99.90
10314;DHT22;5202;49.138;10.090;2024-01-16T03:07:34;-2.10;99.90
10314;DHT22;5202;49.138;10.090;2024-01-16T03:10:09;-1.90;99.90
10314;DHT22;5202;49.138;10.090;2024-01-16T03:12:39;-2.00;99.90
10314;DHT22;5202;49.138;10.090;2024-01-16T03:15:08;-2.00;99.90
10314;DHT22;5202;49.138;10.090;2024-01-16T03:17:37;-2.00;99.90
10314;DHT22;5202;49.138;10.090;2024-01-16T03:20:07;-2.00;99.90
10314;DHT22;5202;49.138;10.090;2024-01-16T03:22:36;-2.00;99.90
10314;DHT22;5202;49.138;10.090;2024-01-16T03:25:05;-2.00;99.90
10314;DHT22;5202;49.138;10.090;2024-01-16T03:27:35;-2.00;99.90
10314;DHT22;5202;49.138;10.090;2024-01-16T03:30:06;-2.00;99.90
10314;DHT22;5202;49.138;10.090;2024-01-16T03:32:36;-1.90;99.90
10314;DHT22;5202;49.138;10.090;2024-01-16T03:35:07;-1.90;99.90
10314;DHT22;5202;49.138;10.090;2024-01-16T03:37:37;-1.90;99.90
10314;DHT22;5202;49.138;10.090;2024-01-16T03:40:07;-1.90;99.90
10314;DHT22;5202;49.138;10.090;2024-01-16T03:42:36;-1.90;99.90
10314;DHT22;5202;49.138;10.090;2024-01-16T03:45:09;-1.90;99.90
10314;DHT22;5202;49.138;10.090;2024-01-16T03:47:41;-1.90;99.90
10314;DHT22;5202;49.138;10.090;2024-01-16T03:50:10;-1.90;99.90
10314;DHT22;5202;49.138;10.090;2024-01-16T03:52:38;-1.90;99.90
10314;DHT22;5202;49.138;10.090;2024-01-16T03:55:07;-1.90;99.90
10314;DHT22;5202;49.138;10.090;2024-01-16T03:57:36;-1.90;99.90
10314;DHT22;5202;49.138;10.090;2024-01-16T04:00:06;-1.90;99.90
10314;DHT22;5202;49.138;10.090;2024-01-16T04:02:39;-1.90;99.90
10314;DHT22;5202;49.138;10.090;2024-01-16T04:05:08;-1.90;99.90
10314;DHT22;5202;49.138;10.090;2024-01-16T04:07:37;-1.80;99.90
10314;DHT22;5202;49.138;10.090;2024-01-16T04:10:06;-1.80;99.90
10314;DHT22;5202;49.138;10.090;2024-01-16T04:12:35;-1.80;99.90
10314;DHT22;5202;49.138;10.090;2024-01-16T04:15:04;-1.80;99.90
10314;DHT22;5202;49.138;10.090;2024-01-16T04:17:34;-1.80;99.90
10314;DHT22;5202;49.138;10.090;2024-01-16T04:20:04;-1.80;99.90
10314;DHT22;5202;49.138;10.090;2024-01-16T04:22:34;-1.80;99.90
10314;DHT22;5202;49.138;10.090;2024-01-16T04:25:04;-1.70;99.90
10314;DHT22;5202;49.138;10.090;2024-01-16T04:27:32;-1.80;99.90
10314;DHT22;5202;49.138;10.090;2024-01-16T04:30:01;-1.70;99.90
10314;DHT22;5202;49.138;10.090;2024-01-16T04:32:30;-1.80;99.90
10314;DHT22;5202;49.138;10.090;2024-01-16T04:35:00;-1.80;99.90
10314;DHT22;5202;49.138;10.090;2024-01-16T04:37:28;-1.80;99.90
10314;DHT22;5202;49.138;10.090;2024-01-16T04:39:57;-1.70;99.90
10314;DHT22;5202;49.138;10.090;2024-01-16T04:42:26;-1.70;99.90
10314;DHT22;5202;49.138;10.090;2024-01-16T04:44:55;-1.80;99.90
10314;DHT22;5202;49.138;10.090;2024-01-16T04:47:23;-1.80;99.90
10314;DHT22;5202;49.138;10.090;2024-01-16T04:49:52;-1.80;99.90
10314;DHT22;5202;49.138;10.090;2024-01-16T04:52:23;-1.70;99.90
10314;DHT22;5202;49.138;10.090;2024-01-16T04:54:52;-1.80;99.90
10314;DHT22;5202;49.138;10.090;2024-01-16T04:57:20;-1.80;99.90
10314;DHT22;5202;49.138;10.090;2024-01-16T04:59:49;-1.80;99.90
10314;DHT22;5202;49.138;10.090;2024-01-16T05:02:17;-1.70;99.90
10314;DHT22;5202;49.138;10.090;2024-01-16T05:04:49;-1.70;99.90
10314;DHT22;5202;49.138;10.090;2024-01-16T05:07:19;-1.70;99.90
10314;DHT22;5202;49.138;10.090;2024-01-16T05:09:49;-1.70;99.90
10314;DHT22;5202;49.138;10.090;2024-01-16T05:12:21;-1.80;99.90
10314;DHT22;5202;49.138;10.090;2024-01-16T05:14:49;-1.70;99.90
10314;DHT22;5202;49.138;10.090;2024-01-16T05:17:18;-1.70;99.90
10314;DHT22;5202;49.138;10.090;2024-01-16T05:19:47;-1.80;99.90
10314;DHT22;5202;49.138;10.090;2024-01-16T05:22:15;-1.80;99.90
10314;DHT22;5202;49.138;10.090;2024-01-16T05:24:44;-1.80;99.90
10314;DHT22;5202;49.138;10.090;2024-01-16T05:27:14;-1.80;99.90
10314;DHT22;5202;49.138;10.090;2024-01-16T05:29:42;-1.80;99.90
10314;DHT22;5202;49.138;10.090;2024-01-16T05:32:11;-1.80;99.90
10314;DHT22;5202;49.138;10.090;2024-01-16T05:34:42;-1.80;99.90
10314;DHT22;5202;49.138;10.090;2024-01-16T05:37:11;-1.80;99.90
10314;DHT22;5202;49.138;10.090;2024-01-16T05:39:41;-1.80;99.90
10314;DHT22;5202;49.138;10.090;2024-01-16T05:42:09;-1.70;99.90
10314;DHT22;5202;49.138;10.090;2024-01-16T05:44:40;-1.60;99.90
10314;DHT22;5202;49.138;10.090;2024-01-16T05:47:08;-1.60;99.90
10314;DHT22;5202;49.138;10.090;2024-01-16T05:49:37;-1.60;99.90
10314;DHT22;5202;49.138;10.090;2024-01-16T05:52:06;-1.70;99.90
10314;DHT22;5202;49.138;10.090;2024-01-16T05:54:34;-1.70;99.90
10314;DHT22;5202;49.138;10.090;2024-01-16T05:57:03;-1.70;99.90
10314;DHT22;5202;49.138;10.090;2024-01-16T05:59:32;-1.70;99.90
10314;DHT22;5202;49.138;10.090;2024-01-16T06:02:02;-1.70;99.90
10314;DHT22;5202;49.138;10.090;2024-01-16T06:04:31;-1.70;99.90
10314;DHT22;5202;49.138;10.090;2024-01-16T06:07:00;-1.70;99.90
10314;DHT22;5202;49.138;10.090;2024-01-16T06:09:28;-1.80;99.90
10314;DHT22;5202;49.138;10.090;2024-01-16T06:11:57;-1.70;99.90
10314;DHT22;5202;49.138;10.090;2024-01-16T06:14:25;-1.70;99.90
10314;DHT22;5202;49.138;10.090;2024-01-16T06:16:54;-1.80;99.90
10314;DHT22;5202;49.138;10.090;2024-01-16T06:19:23;-1.80;99.90
10314;DHT22;5202;49.138;10.090;2024-01-16T06:21:52;-1.80;99.90
10314;DHT22;5202;49.138;10.090;2024-01-16T06:24:21;-1.70;99.90
10314;DHT22;5202;49.138;10.090;2024-01-16T06:26:49;-1.80;99.90
10314;DHT22;5202;49.138;10.090;2024-01-16T06:29:19;-1.80;99.90
10314;DHT22;5202;49.138;10.090;2024-01-16T06:32:01;-1.90;99.90
10314;DHT22;5202;49.138;10.090;2024-01-16T06:34:30;-1.90;99.90
10314;DHT22;5202;49.138;10.090;2024-01-16T06:36:59;-1.90;99.90
10314;DHT22;5202;49.138;10.090;2024-01-16T06:39:28;-2.00;99.90
10314;DHT22;5202;49.138;10.090;2024-01-16T06:41:57;-1.90;99.90
10314;DHT22;5202;49.138;10.090;2024-01-16T06:44:25;-2.00;99.90
10314;DHT22;5202;49.138;10.090;2024-01-16T06:46:54;-2.00;99.90
10314;DHT22;5202;49.138;10.090;2024-01-16T06:49:22;-2.00;99.90
10314;DHT22;5202;49.138;10.090;2024-01-16T06:51:52;-2.10;99.90
10314;DHT22;5202;49.138;10.090;2024-01-16T06:54:21;-2.10;99.90
10314;DHT22;5202;49.138;10.090;2024-01-16T06:56:50;-2.10;99.90
10314;DHT22;5202;49.138;10.090;2024-01-16T06:59:18;-2.10;99.90
10314;DHT22;5202;49.138;10.090;2024-01-16T07:01:49;-2.00;99.90
10314;DHT22;5202;49.138;10.090;2024-01-16T07:04:19;-2.20;99.90
10314;DHT22;5202;49.138;10.090;2024-01-16T07:06:47;-2.50;99.90
10314;DHT22;5202;49.138;10.090;2024-01-16T07:09:18;-2.70;99.90
10314;DHT22;5202;49.138;10.090;2024-01-16T07:11:57;-2.80;99.90
10314;DHT22;5202;49.138;10.090;2024-01-16T07:14:25;-2.80;99.90
10314;DHT22;5202;49.138;10.090;2024-01-16T07:16:55;-2.80;99.90
10314;DHT22;5202;49.138;10.090;2024-01-16T07:19:23;-2.80;99.90
10314;DHT22;5202;49.138;10.090;2024-01-16T07:21:53;-2.90;99.90
10314;DHT22;5202;49.138;10.090;2024-01-16T07:24:23;-3.00;99.90
10314;DHT22;5202;49.138;10.090;2024-01-16T07:26:51;-3.10;99.90
10314;DHT22;5202;49.138;10.090;2024-01-16T07:29:21;-3.10;99.90
10314;DHT22;5202;49.138;10.090;2024-01-16T07:31:49;-3.00;99.90
10314;DHT22;5202;49.138;10.090;2024-01-16T07:34:20;-2.90;99.90
10314;DHT22;5202;49.138;10.090;2024-01-16T07:36:50;-3.00;99.90
10314;DHT22;5202;49.138;10.090;2024-01-16T07:39:19;-3.00;99.90
10314;DHT22;5202;49.138;10.090;2024-01-16T07:41:49;-2.90;99.90
10314;DHT22;5202;49.138;10.090;2024-01-16T07:44:17;-2.80;99.90
10314;DHT22;5202;49.138;10.090;2024-01-16T07:46:45;-2.90;99.90
10314;DHT22;5202;49.138;10.090;2024-01-16T07:49:14;-2.90;99.90
10314;DHT22;5202;49.138;10.090;2024-01-16T07:51:44;-2.90;99.90
10314;DHT22;5202;49.138;10.090;2024-01-16T07:54:12;-2.90;99.90
10314;DHT22;5202;49.138;10.090;2024-01-16T07:56:41;-2.90;99.90
10314;DHT22;5202;49.138;10.090;2024-01-16T07:59:11;-2.90;99.90
10314;DHT22;5202;49.138;10.090;2024-01-16T08:01:41;-2.80;99.90
10314;DHT22;5202;49.138;10.090;2024-01-16T08:04:10;-2.70;99.90
10314;DHT22;5202;49.138;10.090;2024-01-16T08:06:39;-2.70;99.90
10314;DHT22;5202;49.138;10.090;2024-01-16T08:09:08;-2.70;99.90
10314;DHT22;5202;49.138;10.090;2024-01-16T08:11:38;-2.60;99.90
10314;DHT22;5202;49.138;10.090;2024-01-16T08:14:07;-2.60;99.90
10314;DHT22;5202;49.138;10.090;2024-01-16T08:16:37;-2.60;99.90
10314;DHT22;5202;49.138;10.090;2024-01-16T08:19:06;-2.50;99.90
10314;DHT22;5202;49.138;10.090;2024-01-16T08:21:35;-2.40;99.90
10314;DHT22;5202;49.138;10.090;2024-01-16T08:24:03;-2.40;99.90
10314;DHT22;5202;49.138;10.090;2024-01-16T08:26:32;-2.30;99.90
10314;DHT22;5202;49.138;10.090;2024-01-16T08:29:01;-2.20;99.90
10314;DHT22;5202;49.138;10.090;2024-01-16T08:31:30;-2.10;99.90
10314;DHT22;5202;49.138;10.090;2024-01-16T08:34:00;-2.10;99.90
10314;DHT22;5202;49.138;10.090;2024-01-16T08:36:29;-2.00;99.90
10314;DHT22;5202;49.138;10.090;2024-01-16T08:38:57;-1.90;99.90
10314;DHT22;5202;49.138;10.090;2024-01-16T08:41:26;-1.80;99.90
10314;DHT22;5202;49.138;10.090;2024-01-16T08:43:55;-1.80;99.90
10314;DHT22;5202;49.138;10.090;2024-01-16T08:46:23;-1.70;99.90
10314;DHT22;5202;49.138;10.090;2024-01-16T08:48:51;-1.70;99.90
10314;DHT22;5202;49.138;10.090;2024-01-16T08:51:22;-1.60;99.90
10314;DHT22;5202;49.138;10.090;2024-01-16T08:53:53;-1.70;99.90
10314;DHT22;5202;49.138;10.090;2024-01-16T08:56:22;-1.70;99.90
10314;DHT22;5202;49.138;10.090;2024-01-16T08:58:51;-1.60;99.90
10314;DHT22;5202;49.138;10.090;2024-01-16T09:01:19;-1.50;99.90
10314;DHT22;5202;49.138;10.090;2024-01-16T09:03:52;-1.40;99.90
10314;DHT22;5202;49.138;10.090;2024-01-16T09:06:46;-1.40;99.90
10314;DHT22;5202;49.138;10.090;2024-01-16T09:09:14;-1.40;99.80
10314;DHT22;5202;49.138;10.090;2024-01-16T09:11:57;-1.20;99.90
10314;DHT22;5202;49.138;10.090;2024-01-16T09:14:26;-1.10;99.70
10314;DHT22;5202;49.138;10.090;2024-01-16T09:16:54;-1.00;99.60
10314;DHT22;5202;49.138;10.090;2024-01-16T09:19:23;-0.90;99.60
10314;DHT22;5202;49.138;10.090;2024-01-16T09:21:55;-0.90;98.70
10314;DHT22;5202;49.138;10.090;2024-01-16T09:24:23;-1.00;98.70
10314;DHT22;5202;49.138;10.090;2024-01-16T09:26:53;-1.10;98.80
10314;DHT22;5202;49.138;10.090;2024-01-16T09:29:21;-0.90;99.20
10314;DHT22;5202;49.138;10.090;2024-01-16T09:31:51;-1.00;98.70
10314;DHT22;5202;49.138;10.090;2024-01-16T09:34:20;-1.00;98.80
10314;DHT22;5202;49.138;10.090;2024-01-16T09:36:49;-1.00;98.50
10314;DHT22;5202;49.138;10.090;2024-01-16T09:39:19;-0.90;98.90
10314;DHT22;5202;49.138;10.090;2024-01-16T09:41:47;-1.00;98.60
10314;DHT22;5202;49.138;10.090;2024-01-16T09:44:16;-1.00;98.50
10314;DHT22;5202;49.138;10.090;2024-01-16T09:46:46;-0.90;99.10
10314;DHT22;5202;49.138;10.090;2024-01-16T09:49:17;-0.60;98.70
10314;DHT22;5202;49.138;10.090;2024-01-16T09:51:46;-0.40;97.90
10314;DHT22;5202;49.138;10.090;2024-01-16T09:54:15;-0.20;97.80
10314;DHT22;5202;49.138;10.090;2024-01-16T09:56:48;-0.10;97.50
10314;DHT22;5202;49.138;10.090;2024-01-16T09:59:20;0.00;97.60
10314;DHT22;5202;49.138;10.090;2024-01-16T10:01:49;0.20;96.80
10314;DHT22;5202;49.138;10.090;2024-01-16T10:04:19;0.20;97.10
10314;DHT22;5202;49.138;10.090;2024-01-16T10:06:50;0.30;96.60
10314;DHT22;5202;49.138;10.090;2024-01-16T10:09:21;0.30;96.00
10314;DHT22;5202;49.138;10.090;2024-01-16T10:11:51;0.50;96.30
10314;DHT22;5202;49.138;10.090;2024-01-16T10:14:20;0.50;95.70
10314;DHT22;5202;49.138;10.090;2024-01-16T10:17:15;0.30;95.90
10314;DHT22;5202;49.138;10.090;2024-01-16T10:19:48;0.20;94.90
10314;DHT22;5202;49.138;10.090;2024-01-16T10:22:22;0.20;95.30
10314;DHT22;5202;49.138;10.090;2024-01-16T10:25:06;0.20;94.70
10314;DHT22;5202;49.138;10.090;2024-01-16T10:27:39;0.20;95.30
10314;DHT22;5202;49.138;10.090;2024-01-16T10:30:09;0.50;95.40
10314;DHT22;5202;49.138;10.090;2024-01-16T10:32:40;0.40;94.70
10314;DHT22;5202;49.138;10.090;2024-01-16T10:35:11;0.50;94.70
10314;DHT22;5202;49.138;10.090;2024-01-16T10:37:42;0.50;94.20
10314;DHT22;5202;49.138;10.090;2024-01-16T10:40:15;0.40;94.00
10314;DHT22;5202;49.138;10.090;2024-01-16T10:42:57;0.30;93.80
10314;DHT22;5202;49.138;10.090;2024-01-16T10:45:27;0.30;94.00
10314;DHT22;5202;49.138;10.090;2024-01-16T10:48:01;0.20;93.80
10314;DHT22;5202;49.138;10.090;2024-01-16T10:50:32;0.10;93.90
10314;DHT22;5202;49.138;10.090;2024-01-16T10:53:04;0.10;93.80
10314;DHT22;5202;49.138;10.090;2024-01-16T10:55:42;0.20;93.80
10314;DHT22;5202;49.138;10.090;2024-01-16T10:58:16;0.30;93.90
10314;DHT22;5202;49.138;10.090;2024-01-16T11:00:51;0.40;93.80
10314;DHT22;5202;49.138;10.090;2024-01-16T11:03:25;0.40;93.80
10314;DHT22;5202;49.138;10.090;2024-01-16T11:05:57;0.40;93.80
10314;DHT22;5202;49.138;10.090;2024-01-16T11:08:28;0.40;93.40
10314;DHT22;5202;49.138;10.090;2024-01-16T11:11:02;0.30;93.30
10314;DHT22;5202;49.138;10.090;2024-01-16T11:13:34;0.20;93.40
10314;DHT22;5202;49.138;10.090;2024-01-16T11:16:03;0.10;93.70
10314;DHT22;5202;49.138;10.090;2024-01-16T11:18:34;0.20;93.70
10314;DHT22;5202;49.138;10.090;2024-01-16T11:21:06;0.30;93.50
10314;DHT22;5202;49.138;10.090;2024-01-16T11:23:41;0.30;93.50
10314;DHT22;5202;49.138;10.090;2024-01-16T11:26:27;0.30;93.50
10314;DHT22;5202;49.138;10.090;2024-01-16T11:29:34;0.40;93.60
10314;DHT22;5202;49.138;10.090;2024-01-16T11:32:04;0.60;93.70
10314;DHT22;5202;49.138;10.090;2024-01-16T11:34:53;0.70;93.60
10314;DHT22;5202;49.138;10.090;2024-01-16T11:37:27;0.70;92.90
10314;DHT22;5202;49.138;10.090;2024-01-16T11:40:21;0.70;92.70
10314;DHT22;5202;49.138;10.090;2024-01-16T11:42:51;0.80;92.60
10314;DHT22;5202;49.138;10.090;2024-01-16T11:45:51;0.70;92.10
10314;DHT22;5202;49.138;10.090;2024-01-16T11:48:20;0.70;92.00
10314;DHT22;5202;49.138;10.090;2024-01-16T11:50:50;0.70;92.30
10314;DHT22;5202;49.138;10.090;2024-01-16T11:53:36;0.80;91.70
10314;DHT22;5202;49.138;10.090;2024-01-16T11:56:22;0.90;91.70
10314;DHT22;5202;49.138;10.090;2024-01-16T12:02:20;0.90;91.40
10314;DHT22;5202;49.138;10.090;2024-01-16T12:04:54;0.80;91.30
10314;DHT22;5202;49.138;10.090;2024-01-16T12:07:24;0.90;91.40
10314;DHT22;5202;49.138;10.090;2024-01-16T12:09:52;1.00;91.60
10314;DHT22;5202;49.138;10.090;2024-01-16T12:12:27;1.10;91.60
10314;DHT22;5202;49.138;10.090;2024-01-16T12:14:55;1.20;92.00
10314;DHT22;5202;49.138;10.090;2024-01-16T12:17:25;1.30;90.80
10314;DHT22;5202;49.138;10.090;2024-01-16T12:19:54;1.30;90.80
10314;DHT22;5202;49.138;10.090;2024-01-16T12:22:24;1.30;91.30
10314;DHT22;5202;49.138;10.090;2024-01-16T12:24:56;1.40;90.00
10314;DHT22;5202;49.138;10.090;2024-01-16T12:27:26;1.30;88.60
10314;DHT22;5202;49.138;10.090;2024-01-16T12:30:05;1.20;89.80
10314;DHT22;5202;49.138;10.090;2024-01-16T12:32:37;1.00;89.00
10314;DHT22;5202;49.138;10.090;2024-01-16T12:35:06;1.00;89.70
10314;DHT22;5202;49.138;10.090;2024-01-16T12:37:35;0.90;90.20
10314;DHT22;5202;49.138;10.090;2024-01-16T12:40:05;0.90;89.80
10314;DHT22;5202;49.138;10.090;2024-01-16T12:42:36;0.90;90.70
10314;DHT22;5202;49.138;10.090;2024-01-16T12:45:08;0.90;91.00
10314;DHT22;5202;49.138;10.090;2024-01-16T12:47:39;1.00;90.30
10314;DHT22;5202;49.138;10.090;2024-01-16T12:50:07;1.10;90.70
10314;DHT22;5202;49.138;10.090;2024-01-16T12:52:36;1.20;90.40
10314;DHT22;5202;49.138;10.090;2024-01-16T12:55:06;1.20;90.10
10314;DHT22;5202;49.138;10.090;2024-01-16T12:57:35;1.20;90.40
10314;DHT22;5202;49.138;10.090;2024-01-16T13:00:25;1.30;90.50
10314;DHT22;5202;49.138;10.090;2024-01-16T13:02:56;1.20;89.90
10314;DHT22;5202;49.138;10.090;2024-01-16T13:05:27;1.10;89.80
10314;DHT22;5202;49.138;10.090;2024-01-16T13:08:06;1.00;90.10
10314;DHT22;5202;49.138;10.090;2024-01-16T13:10:35;1.20;90.70
10314;DHT22;5202;49.138;10.090;2024-01-16T13:13:12;1.20;89.30
10314;DHT22;5202;49.138;10.090;2024-01-16T13:15:42;1.10;89.20
10314;DHT22;5202;49.138;10.090;2024-01-16T13:18:19;1.10;90.20
10314;DHT22;5202;49.138;10.090;2024-01-16T13:20:49;1.20;89.80
10314;DHT22;5202;49.138;10.090;2024-01-16T13:23:18;1.20;88.70
10314;DHT22;5202;49.138;10.090;2024-01-16T13:25:49;1.20;88.60
10314;DHT22;5202;49.138;10.090;2024-01-16T13:28:19;1.10;88.40
10314;DHT22;5202;49.138;10.090;2024-01-16T13:30:52;1.00;89.60
10314;DHT22;5202;49.138;10.090;2024-01-16T13:33:23;1.00;90.00
10314;DHT22;5202;49.138;10.090;2024-01-16T13:35:55;1.10;89.60
10314;DHT22;5202;49.138;10.090;2024-01-16T13:38:23;1.00;89.50
10314;DHT22;5202;49.138;10.090;2024-01-16T13:40:54;1.10;89.20
10314;DHT22;5202;49.138;10.090;2024-01-16T13:43:22;1.10;88.40
10314;DHT22;5202;49.138;10.090;2024-01-16T13:45:52;1.10;88.80
10314;DHT22;5202;49.138;10.090;2024-01-16T13:48:20;1.20;90.10
10314;DHT22;5202;49.138;10.090;2024-01-16T13:50:50;1.20;90.30
10314;DHT22;5202;49.138;10.090;2024-01-16T13:53:19;1.10;90.30
10314;DHT22;5202;49.138;10.090;2024-01-16T13:55:47;1.10;90.60
10314;DHT22;5202;49.138;10.090;2024-01-16T13:58:16;1.10;90.60
10314;DHT22;5202;49.138;10.090;2024-01-16T14:00:46;1.00;90.60
10314;DHT22;5202;49.138;10.090;2024-01-16T14:03:15;0.90;90.60
10314;DHT22;5202;49.138;10.090;2024-01-16T14:05:46;0.90;90.90
10314;DHT22;5202;49.138;10.090;2024-01-16T14:08:16;1.00;91.00
10314;DHT22;5202;49.138;10.090;2024-01-16T14:10:44;1.00;90.70
10314;DHT22;5202;49.138;10.090;2024-01-16T14:13:12;1.00;89.40
10314;DHT22;5202;49.138;10.090;2024-01-16T14:15:41;1.10;89.10
10314;DHT22;5202;49.138;10.090;2024-01-16T14:18:09;1.10;88.40
10314;DHT22;5202;49.138;10.090;2024-01-16T14:20:38;1.10;88.60
10314;DHT22;5202;49.138;10.090;2024-01-16T14:23:07;1.10;89.00
10314;DHT22;5202;49.138;10.090;2024-01-16T14:25:37;1.20;88.40
10314;DHT22;5202;49.138;10.090;2024-01-16T14:28:05;1.20;90.10
10314;DHT22;5202;49.138;10.090;2024-01-16T14:30:44;1.20;90.60
10314;DHT22;5202;49.138;10.090;2024-01-16T14:33:13;1.20;90.90
10314;DHT22;5202;49.138;10.090;2024-01-16T14:35:41;1.10;91.20
10314;DHT22;5202;49.138;10.090;2024-01-16T14:38:10;1.10;91.60
10314;DHT22;5202;49.138;10.090;2024-01-16T14:40:40;1.10;91.30
10314;DHT22;5202;49.138;10.090;2024-01-16T14:43:08;1.20;91.30
10314;DHT22;5202;49.138;10.090;2024-01-16T14:45:37;1.20;91.70
10314;DHT22;5202;49.138;10.090;2024-01-16T14:48:06;1.30;91.50
10314;DHT22;5202;49.138;10.090;2024-01-16T14:50:37;1.30;91.20
10314;DHT22;5202;49.138;10.090;2024-01-16T14:53:05;1.40;91.30
10314;DHT22;5202;49.138;10.090;2024-01-16T14:55:33;1.40;91.10
10314;DHT22;5202;49.138;10.090;2024-01-16T14:58:03;1.40;91.20
10314;DHT22;5202;49.138;10.090;2024-01-16T15:00:31;1.50;91.10
10314;DHT22;5202;49.138;10.090;2024-01-16T15:03:00;1.60;91.20
10314;DHT22;5202;49.138;10.090;2024-01-16T15:05:39;1.70;90.90
10314;DHT22;5202;49.138;10.090;2024-01-16T15:08:16;1.70;91.20
10314;DHT22;5202;49.138;10.090;2024-01-16T15:10:45;2.00;91.10
10314;DHT22;5202;49.138;10.090;2024-01-16T15:13:16;2.10;91.00
10314;DHT22;5202;49.138;10.090;2024-01-16T15:15:44;2.00;91.10
10314;DHT22;5202;49.138;10.090;2024-01-16T15:18:11;1.90;90.80
10314;DHT22;5202;49.138;10.090;2024-01-16T15:20:41;1.70;90.80
10314;DHT22;5202;49.138;10.090;2024-01-16T15:23:09;1.50;91.40
10314;DHT22;5202;49.138;10.090;2024-01-16T15:25:39;1.30;91.40
10314;DHT22;5202;49.138;10.090;2024-01-16T15:28:07;1.10;91.40
10314;DHT22;5202;49.138;10.090;2024-01-16T15:30:37;1.10;92.10
10314;DHT22;5202;49.138;10.090;2024-01-16T15:33:06;1.10;91.10
10314;DHT22;5202;49.138;10.090;2024-01-16T15:35:35;1.00;91.10
10314;DHT22;5202;49.138;10.090;2024-01-16T15:38:04;0.90;91.00
10314;DHT22;5202;49.138;10.090;2024-01-16T15:40:32;0.80;91.30
10314;DHT22;5202;49.138;10.090;2024-01-16T15:43:01;0.70;91.20
10314;DHT22;5202;49.138;10.090;2024-01-16T15:45:29;0.50;91.50
10314;DHT22;5202;49.138;10.090;2024-01-16T15:47:59;0.40;91.70
10314;DHT22;5202;49.138;10.090;2024-01-16T15:50:28;0.20;91.60
10314;DHT22;5202;49.138;10.090;2024-01-16T15:52:56;0.10;91.80
10314;DHT22;5202;49.138;10.090;2024-01-16T15:55:25;0.00;92.10
10314;DHT22;5202;49.138;10.090;2024-01-16T15:57:54;0.00;93.00
10314;DHT22;5202;49.138;10.090;2024-01-16T16:00:22;-0.10;92.60